首页
METAR-TAF:

METAR-TAF

机场 :

Churchill, 曼尼托巴, 加拿大

纬度: 58-44N, 经度: 094-04W, 海拔: 28米

当前天气观测

该预报发布于19小时和42分钟前的01:55 UTC
风速11节,风向东转东北
温度 2°C
湿度 93%
气压 1006 hPa
能見度: 24.1公里
少量云层高于5500英尺
散云层高于25000英尺

METAR: CYYQ 250155Z 06011KT 15SM FEW055 SCT250 02/01 A2972 RMK SC2CI1 SLP068

时间: 16:37 (21:37 UTC)

预报

该预报发布于3小时和57分钟前的17:40 UTC
预报有效从25日的 18点(UTC)到 26日的 18点(UTC)
风速12节,风向
能見度: 10公里
多云层高于5000英尺
成为
从 25日的 19点(UTC)到 25日的 21点(UTC)
风速8节,风向东北
从 25日的 2100点(UTC)
风速8节,风向东北
能見度: 10公里
多云层高于7000英尺
成为
从 25日的 23点(UTC)到 26日的 01点(UTC)
风速8节,风向
从 26日的 0600点(UTC)
风速5节,风向
能見度: 10公里
少量云层高于6000英尺
成为
从 26日的 08点(UTC)到 26日的 10点(UTC)
风速3节,风向多变

TAF: CYYQ 251740Z 2518/2618 36012KT P6SM BKN050 BECMG 2519/2521 04008KT FM252100 04008KT P6SM BKN070 BECMG 2523/2601 09008KT FM260600 10005KT P6SM FEW060 BECMG 2608/2610 VRB03KT RMK NXT FCST BY 260000Z

超过4000个机场的气象观测和天气预报(METAR&TAF报告)。

可查询的气象台以黄色和红色小点在地图上表示。

将鼠标移到小点上方,可查看气象台名称。

然后点击查看天气观测和预报。

如需切换地图:点击带黑十字的绿色按钮放大地图;点击带横线的绿色按钮缩小地图;或者点击绿色箭头查看邻近地区的地图。


METAR-TAF: